createdAt,value
2022-08-17T00:02:25.350Z,12.65
2022-08-17T00:04:55.120Z,13.93
2022-08-17T00:07:22.752Z,17.13
2022-08-17T00:09:50.086Z,13.38
2022-08-17T00:12:41.140Z,16.05
2022-08-17T00:15:05.429Z,13.63
2022-08-17T00:17:32.237Z,11.23
2022-08-17T00:20:00.324Z,11.52
2022-08-17T00:22:33.854Z,16.17
2022-08-17T00:25:05.298Z,14.65
2022-08-17T00:27:32.254Z,17.92
2022-08-17T00:29:59.267Z,15.27
2022-08-17T00:33:13.797Z,15.18
2022-08-17T00:35:18.341Z,15.68
2022-08-17T00:37:45.253Z,16.38
2022-08-17T00:40:15.155Z,14.07
2022-08-17T00:42:43.814Z,16.45
2022-08-17T00:45:13.215Z,13.77
2022-08-17T00:47:41.544Z,14.70
2022-08-17T00:50:12.268Z,16.63
2022-08-17T00:52:54.898Z,15.23
2022-08-17T00:55:23.999Z,14.20
2022-08-17T00:57:56.567Z,14.70
2022-08-17T01:00:28.798Z,19.00
2022-08-17T01:03:02.102Z,16.00
2022-08-17T01:05:32.400Z,14.30
2022-08-17T01:08:01.534Z,15.15
2022-08-17T01:10:58.624Z,15.60
2022-08-17T01:13:27.788Z,15.25
2022-08-17T01:16:09.226Z,14.15
2022-08-17T01:18:36.572Z,14.65
2022-08-17T01:21:48.641Z,13.35
2022-08-17T01:24:15.906Z,12.93
2022-08-17T01:26:45.967Z,13.85
2022-08-17T01:29:13.742Z,16.05
2022-08-17T01:32:03.701Z,16.92
2022-08-17T01:34:36.835Z,14.80
2022-08-17T01:37:13.216Z,17.58
2022-08-17T01:39:54.924Z,16.13
2022-08-17T01:42:36.513Z,21.90
2022-08-17T01:45:11.227Z,18.40
2022-08-17T01:47:38.267Z,15.98
2022-08-17T01:50:15.884Z,14.70
2022-08-17T01:52:45.325Z,15.70
2022-08-17T01:55:15.754Z,13.20
2022-08-17T01:57:45.519Z,14.63
2022-08-17T02:00:14.035Z,16.08
2022-08-17T02:02:41.579Z,16.23
2022-08-17T02:05:08.874Z,16.55
2022-08-17T02:08:00.049Z,18.88
2022-08-17T02:10:23.897Z,14.95
2022-08-17T02:13:02.169Z,13.80
2022-08-17T02:15:29.211Z,14.77
2022-08-17T02:17:56.031Z,16.23
2022-08-17T02:20:41.386Z,15.18
2022-08-17T02:23:11.841Z,16.77
2022-08-17T02:25:42.941Z,14.77
2022-08-17T02:28:10.783Z,13.25
2022-08-17T02:30:59.370Z,13.02
2022-08-17T02:33:24.709Z,17.00
2022-08-17T02:36:10.033Z,17.00
2022-08-17T02:38:37.626Z,12.93
2022-08-17T02:41:04.620Z,14.85
2022-08-17T02:43:31.917Z,12.27
2022-08-17T02:45:58.718Z,16.17
2022-08-17T02:48:30.450Z,15.88
2022-08-17T02:50:59.334Z,14.73
2022-08-17T02:53:26.697Z,17.23
2022-08-17T02:55:53.889Z,14.23
2022-08-17T02:58:34.540Z,13.23
2022-08-17T03:01:06.997Z,15.38
2022-08-17T03:03:34.868Z,14.38
2022-08-17T03:06:03.300Z,13.00
2022-08-17T03:08:30.484Z,14.30
2022-08-17T03:10:57.668Z,13.38
2022-08-17T03:13:24.529Z,14.90
2022-08-17T03:15:51.532Z,12.32
2022-08-17T03:18:25.426Z,15.40
2022-08-17T03:20:55.573Z,14.80
2022-08-17T03:23:23.805Z,12.60
2022-08-17T03:25:53.343Z,12.75
2022-08-17T03:28:21.193Z,13.73
2022-08-17T03:30:48.199Z,15.00
2022-08-17T03:33:16.156Z,12.70
2022-08-17T03:35:43.161Z,12.00
2022-08-17T03:38:12.459Z,15.77
2022-08-17T03:40:56.328Z,13.80
2022-08-17T03:43:30.388Z,16.65
2022-08-17T03:46:28.453Z,14.95
2022-08-17T03:49:23.173Z,12.60
2022-08-17T03:52:09.054Z,17.15
2022-08-17T03:54:55.069Z,12.98
2022-08-17T03:57:21.893Z,16.08
2022-08-17T03:59:49.465Z,15.35
2022-08-17T04:02:24.127Z,15.35
2022-08-17T04:04:52.151Z,16.77
2022-08-17T04:07:24.669Z,17.95
2022-08-17T04:09:51.489Z,16.33
2022-08-17T04:12:20.907Z,15.10
2022-08-17T04:14:51.713Z,18.92
2022-08-17T04:17:23.058Z,15.13
2022-08-17T04:19:50.685Z,15.00
2022-08-17T04:22:32.283Z,16.30
2022-08-17T04:25:16.679Z,15.88
2022-08-17T04:27:43.570Z,17.33
2022-08-17T04:30:11.070Z,17.42
2022-08-17T04:33:14.013Z,15.50
2022-08-17T04:35:45.591Z,18.23
2022-08-17T04:38:15.254Z,17.88
2022-08-17T04:41:01.718Z,17.20
2022-08-17T04:43:30.962Z,18.40
2022-08-17T04:46:00.394Z,18.85
2022-08-17T04:48:40.060Z,15.25
2022-08-17T04:51:14.003Z,23.73
2022-08-17T04:53:42.933Z,16.52
2022-08-17T04:56:15.903Z,17.98
2022-08-17T04:58:46.265Z,24.58
2022-08-17T05:01:14.015Z,16.48
2022-08-17T05:03:41.915Z,18.92
2022-08-17T05:06:08.936Z,18.08
2022-08-17T05:08:36.107Z,16.15
2022-08-17T05:11:03.105Z,17.60
2022-08-17T05:13:29.976Z,20.23
2022-08-17T05:16:01.165Z,17.85
2022-08-17T05:18:29.602Z,16.50
2022-08-17T05:20:57.245Z,16.25
2022-08-17T05:23:25.667Z,16.08
2022-08-17T05:25:58.174Z,17.05
2022-08-17T05:28:29.586Z,16.33
2022-08-17T05:30:58.206Z,23.70
2022-08-17T05:33:31.736Z,19.08
2022-08-17T05:35:59.709Z,15.60
2022-08-17T05:38:29.248Z,20.23
2022-08-17T05:40:57.013Z,14.40
2022-08-17T05:43:30.485Z,13.57
2022-08-17T05:46:10.650Z,15.73
2022-08-17T05:48:49.920Z,15.05
2022-08-17T05:51:43.269Z,17.77
2022-08-17T05:54:35.170Z,16.40
2022-08-17T05:57:26.874Z,16.30
2022-08-17T06:00:12.654Z,17.42
2022-08-17T06:03:18.251Z,14.88
2022-08-17T06:06:22.710Z,15.27
2022-08-17T06:09:09.953Z,13.38
2022-08-17T06:12:14.371Z,12.43
2022-08-17T06:15:08.116Z,14.45
2022-08-17T06:17:35.601Z,14.73
2022-08-17T06:20:08.819Z,15.20
2022-08-17T06:22:48.742Z,14.95
2022-08-17T06:25:22.241Z,17.60
2022-08-17T06:27:53.677Z,15.40
2022-08-17T06:30:28.283Z,14.63
2022-08-17T06:35:42.323Z,14.80
2022-08-17T06:38:34.064Z,15.93
2022-08-17T06:41:38.152Z,16.03
2022-08-17T06:44:49.900Z,15.40
2022-08-17T06:47:36.216Z,15.32
2022-08-17T06:50:14.535Z,13.05
2022-08-17T06:52:59.500Z,13.98
2022-08-17T06:55:45.137Z,13.07
2022-08-17T06:58:16.132Z,16.40
2022-08-17T07:00:47.145Z,16.85
2022-08-17T07:03:21.083Z,13.23
2022-08-17T07:05:53.401Z,13.77
2022-08-17T07:08:59.948Z,13.10
2022-08-17T07:11:33.975Z,11.77
2022-08-17T07:14:23.764Z,10.32
2022-08-17T07:16:56.456Z,10.80
2022-08-17T07:19:27.045Z,14.68
2022-08-17T07:22:57.479Z,14.63
2022-08-17T07:25:18.700Z,12.88
2022-08-17T07:27:57.423Z,10.70
2022-08-17T07:30:25.964Z,10.30
2022-08-17T07:33:20.012Z,11.88
2022-08-17T07:35:48.409Z,11.93
2022-08-17T07:38:32.824Z,9.65
2022-08-17T07:41:08.486Z,13.45
2022-08-17T07:43:41.153Z,14.18
2022-08-17T07:46:54.042Z,9.70
2022-08-17T07:49:37.191Z,7.82
2022-08-17T07:52:50.313Z,10.13
2022-08-17T07:55:31.360Z,8.38
2022-08-17T07:58:00.121Z,6.68
2022-08-17T08:00:32.229Z,7.20
2022-08-17T08:03:34.056Z,6.93
2022-08-17T08:06:03.014Z,10.15
2022-08-17T08:08:43.860Z,7.40
2022-08-17T08:11:15.545Z,10.15
2022-08-17T08:13:45.711Z,7.05
2022-08-17T08:16:17.529Z,12.10
2022-08-17T08:18:55.676Z,8.82
2022-08-17T08:21:47.319Z,6.45
2022-08-17T08:24:33.828Z,12.18
2022-08-17T08:27:30.392Z,10.02
2022-08-17T08:30:16.197Z,9.68
2022-08-17T08:33:12.612Z,8.75
2022-08-17T08:36:02.577Z,7.70
2022-08-17T08:38:56.632Z,7.60
2022-08-17T08:41:50.956Z,9.15
2022-08-17T08:44:59.926Z,9.60
2022-08-17T08:47:55.300Z,8.73
2022-08-17T08:50:38.784Z,7.80
2022-08-17T08:53:48.989Z,8.85
2022-08-17T08:57:28.007Z,9.88
2022-08-17T09:00:15.151Z,6.75
2022-08-17T09:03:03.075Z,10.85
2022-08-17T09:05:57.670Z,5.18
2022-08-17T09:08:55.664Z,6.28
2022-08-17T09:12:02.931Z,4.28
2022-08-17T09:14:51.796Z,9.90
2022-08-17T09:17:33.213Z,12.15
2022-08-17T09:20:05.922Z,6.97
2022-08-17T09:22:44.061Z,13.23
2022-08-17T09:25:17.412Z,9.80
2022-08-17T09:28:00.757Z,6.25
2022-08-17T09:30:36.341Z,7.00
2022-08-17T09:33:09.046Z,6.82
2022-08-17T09:35:44.830Z,11.85
2022-08-17T09:38:30.468Z,12.18
2022-08-17T09:40:59.233Z,10.05
2022-08-17T09:43:38.469Z,8.50
2022-08-17T09:46:23.696Z,8.43
2022-08-17T09:49:03.298Z,8.68
2022-08-17T09:51:36.064Z,5.18
2022-08-17T09:54:34.828Z,8.65
2022-08-17T09:57:25.885Z,8.88
2022-08-17T10:00:13.460Z,7.18
2022-08-17T10:03:01.610Z,7.35
2022-08-17T10:06:02.787Z,6.65
2022-08-17T10:12:17.630Z,5.20
2022-08-17T10:15:13.406Z,6.55
2022-08-17T10:18:19.055Z,5.00
2022-08-17T10:21:28.498Z,8.70
2022-08-17T10:24:28.109Z,5.63
2022-08-17T10:26:57.838Z,7.93
2022-08-17T10:29:50.471Z,6.15
2022-08-17T10:32:46.084Z,5.75
2022-08-17T10:35:40.861Z,4.72
2022-08-17T10:41:31.220Z,5.47
2022-08-17T10:44:36.935Z,6.53
2022-08-17T10:47:15.002Z,6.28
2022-08-17T10:49:47.967Z,7.43
2022-08-17T10:52:24.848Z,7.05
2022-08-17T10:54:58.072Z,9.18
2022-08-17T10:57:31.861Z,9.45
2022-08-17T11:00:03.792Z,8.65
2022-08-17T11:02:52.358Z,6.88
2022-08-17T11:05:27.520Z,9.88
2022-08-17T11:08:23.161Z,11.98
2022-08-17T11:10:58.896Z,9.98
2022-08-17T11:13:54.598Z,9.18
2022-08-17T11:17:02.065Z,8.25
2022-08-17T11:20:12.505Z,9.40
2022-08-17T11:23:21.237Z,10.23
2022-08-17T11:25:57.786Z,10.55
2022-08-17T11:28:36.858Z,9.02
2022-08-17T11:31:10.238Z,7.82
2022-08-17T11:33:44.629Z,11.57
2022-08-17T11:36:35.212Z,9.48
2022-08-17T11:39:31.639Z,12.60
2022-08-17T11:42:30.046Z,10.93
2022-08-17T11:45:01.288Z,11.50
2022-08-17T11:51:33.783Z,13.32
2022-08-17T11:54:32.902Z,15.52
2022-08-17T11:56:54.032Z,13.68
2022-08-17T11:59:44.888Z,15.25
2022-08-17T12:02:29.914Z,11.48
2022-08-17T12:05:25.334Z,12.57
2022-08-17T12:08:07.908Z,15.05
2022-08-17T12:10:40.403Z,18.23
2022-08-17T12:13:15.787Z,15.20
2022-08-17T12:15:50.435Z,16.05
2022-08-17T12:18:24.480Z,13.00
2022-08-17T12:21:26.296Z,14.77
2022-08-17T12:24:10.107Z,14.88
2022-08-17T12:26:38.277Z,15.67
2022-08-17T12:29:18.027Z,15.90
2022-08-17T12:31:59.004Z,16.30
2022-08-17T12:34:45.974Z,20.13
2022-08-17T12:37:31.018Z,18.25
2022-08-17T12:40:22.689Z,19.65
2022-08-17T12:43:02.356Z,15.40
2022-08-17T12:45:33.624Z,16.85
2022-08-17T12:48:07.895Z,18.65
2022-08-17T12:53:16.948Z,20.73
2022-08-17T12:55:44.522Z,19.35
2022-08-17T12:58:16.856Z,18.58
2022-08-17T13:00:56.753Z,18.05
2022-08-17T13:03:27.826Z,25.20
2022-08-17T13:06:11.027Z,18.90
2022-08-17T13:08:47.899Z,24.08
2022-08-17T13:11:14.676Z,23.17
2022-08-17T13:13:44.593Z,23.38
2022-08-17T13:16:17.167Z,27.65
2022-08-17T13:19:08.175Z,23.95
2022-08-17T13:21:37.821Z,23.92
2022-08-17T13:24:21.105Z,22.27
2022-08-17T13:26:54.534Z,25.08
2022-08-17T13:29:53.642Z,23.73
2022-08-17T13:32:43.587Z,20.65
2022-08-17T13:35:33.438Z,17.67
2022-08-17T13:38:16.658Z,22.75
2022-08-17T13:40:53.059Z,22.05
2022-08-17T13:43:44.582Z,19.77
2022-08-17T13:46:32.122Z,17.52
2022-08-17T13:49:11.693Z,19.40
2022-08-17T13:51:47.161Z,18.48
2022-08-17T13:54:41.527Z,17.70
2022-08-17T13:57:25.476Z,13.52
2022-08-17T13:59:56.696Z,12.70
2022-08-17T14:02:28.322Z,10.27
2022-08-17T14:04:56.266Z,12.25
2022-08-17T14:07:31.309Z,14.38
2022-08-17T14:10:15.095Z,11.32
2022-08-17T14:12:44.756Z,23.20
2022-08-17T14:15:15.010Z,15.18
2022-08-17T14:17:42.032Z,15.80
2022-08-17T14:20:12.074Z,12.80
2022-08-17T14:22:43.767Z,12.45
2022-08-17T14:25:14.827Z,13.82
2022-08-17T14:27:52.128Z,12.85
2022-08-17T14:30:26.697Z,15.15
2022-08-17T14:32:58.008Z,14.48
2022-08-17T14:35:27.782Z,19.58
2022-08-17T14:37:55.078Z,16.10
2022-08-17T14:40:24.832Z,16.35
2022-08-17T14:42:55.146Z,19.63
2022-08-17T14:45:31.596Z,28.23
2022-08-17T14:48:01.357Z,21.13
2022-08-17T14:50:28.220Z,18.42
2022-08-17T14:52:57.712Z,17.77
2022-08-17T14:55:26.135Z,18.23
2022-08-17T14:57:53.156Z,6.30
2022-08-17T15:00:20.204Z,3.53
2022-08-17T15:02:56.393Z,4.07
2022-08-17T15:05:26.075Z,7.78
2022-08-17T15:07:53.661Z,11.98
2022-08-17T15:10:20.751Z,7.72
2022-08-17T15:12:48.344Z,5.30
2022-08-17T15:15:17.533Z,4.43
2022-08-17T15:17:45.888Z,4.18
2022-08-17T15:20:16.013Z,3.92
2022-08-17T15:22:44.987Z,4.97
2022-08-17T15:25:13.893Z,3.63
2022-08-17T15:27:41.274Z,3.03
2022-08-17T15:30:09.985Z,5.13
2022-08-17T15:32:41.022Z,3.75
2022-08-17T15:35:19.448Z,4.75
2022-08-17T15:37:54.005Z,3.67
2022-08-17T15:40:21.073Z,3.30
2022-08-17T15:42:47.946Z,4.60
2022-08-17T15:45:16.798Z,3.25
2022-08-17T15:47:43.709Z,5.20
2022-08-17T15:50:10.888Z,4.00
2022-08-17T15:52:40.419Z,4.72
2022-08-17T15:55:11.482Z,5.88
2022-08-17T15:57:38.728Z,3.92
2022-08-17T16:00:08.280Z,3.08
2022-08-17T16:03:45.875Z,2.47
2022-08-17T16:05:25.257Z,3.35
2022-08-17T16:07:53.577Z,3.92
2022-08-17T16:10:21.873Z,2.22
2022-08-17T16:13:01.921Z,2.67
2022-08-17T16:15:31.497Z,2.08
2022-08-17T16:17:58.611Z,1.80
2022-08-17T16:20:25.906Z,2.35
2022-08-17T16:22:54.201Z,2.65
2022-08-17T16:25:49.008Z,2.92
2022-08-17T16:28:16.478Z,3.13
2022-08-17T16:30:43.403Z,3.47
2022-08-17T16:33:11.667Z,2.35
2022-08-17T16:35:39.552Z,3.17
2022-08-17T16:38:07.081Z,4.00
2022-08-17T16:40:36.212Z,4.32
2022-08-17T16:43:04.262Z,2.65
2022-08-17T16:45:36.835Z,1.88
2022-08-17T16:48:04.418Z,6.78
2022-08-17T16:50:32.301Z,2.40
2022-08-17T16:53:10.343Z,2.63
2022-08-17T16:55:37.816Z,2.53
2022-08-17T16:58:06.333Z,2.35
2022-08-17T17:00:36.552Z,3.00
2022-08-17T17:03:19.538Z,3.08
2022-08-17T17:06:07.799Z,1.88
2022-08-17T17:08:34.742Z,2.20
2022-08-17T17:11:12.093Z,2.05
2022-08-17T17:13:40.868Z,3.45
2022-08-17T17:16:31.802Z,2.75
2022-08-17T17:19:36.308Z,2.40
2022-08-17T17:22:20.297Z,4.00
2022-08-17T17:25:13.584Z,3.25
2022-08-17T17:27:43.636Z,3.08
2022-08-17T17:30:34.453Z,1.55
2022-08-17T17:33:10.948Z,1.88
2022-08-17T17:35:44.816Z,2.38
2022-08-17T17:38:19.939Z,3.20
2022-08-17T17:40:51.033Z,2.08
2022-08-17T17:43:38.481Z,2.33
2022-08-17T17:46:27.165Z,1.40
2022-08-17T17:48:57.113Z,1.70
2022-08-17T17:52:06.928Z,2.50
2022-08-17T17:54:39.330Z,2.70
2022-08-17T17:57:21.320Z,1.55
2022-08-17T18:00:16.510Z,1.20
2022-08-17T18:05:51.538Z,1.77
2022-08-17T18:08:35.325Z,1.88
2022-08-17T18:11:39.888Z,1.38
2022-08-17T18:14:30.020Z,2.75
2022-08-17T18:16:58.996Z,3.22
2022-08-17T18:19:28.243Z,2.25
2022-08-17T18:22:02.224Z,2.83
2022-08-17T18:24:39.241Z,2.45
2022-08-17T18:27:19.451Z,2.30
2022-08-17T18:29:49.788Z,3.72
2022-08-17T18:32:36.622Z,2.58
2022-08-17T18:35:27.764Z,2.63
2022-08-17T18:38:20.526Z,7.88
2022-08-17T18:41:21.301Z,2.55
2022-08-17T18:44:31.185Z,3.55
2022-08-17T18:47:13.623Z,2.75
2022-08-17T18:50:11.002Z,2.17
2022-08-17T18:52:37.889Z,2.20
2022-08-17T18:55:14.123Z,2.20
2022-08-17T18:57:54.897Z,2.78
2022-08-17T19:00:40.271Z,3.13
2022-08-17T19:03:16.403Z,2.30
2022-08-17T19:05:46.812Z,3.53
2022-08-17T19:08:33.030Z,3.08
2022-08-17T19:10:59.845Z,3.35
2022-08-17T19:14:00.795Z,2.55
2022-08-17T19:16:53.259Z,3.50
2022-08-17T19:19:32.309Z,3.03
2022-08-17T19:22:14.648Z,4.15
2022-08-17T19:25:03.581Z,3.45
2022-08-17T19:27:49.974Z,2.83
2022-08-17T19:30:17.129Z,3.80
2022-08-17T19:32:43.968Z,5.05
2022-08-17T19:35:17.135Z,4.00
2022-08-17T19:37:49.483Z,3.65
2022-08-17T19:40:51.660Z,3.85
2022-08-17T19:43:29.869Z,4.20
2022-08-17T19:46:14.843Z,4.82
2022-08-17T19:49:03.774Z,5.35
2022-08-17T19:51:52.022Z,4.35
2022-08-17T19:54:28.086Z,5.45
2022-08-17T19:57:10.036Z,8.30
2022-08-17T20:00:02.644Z,7.25
2022-08-17T20:02:46.401Z,4.38
2022-08-17T20:06:08.740Z,5.93
2022-08-17T20:08:38.437Z,6.13
2022-08-17T20:11:24.764Z,4.70
2022-08-17T20:14:16.159Z,5.97
2022-08-17T20:16:43.484Z,8.15
2022-08-17T20:19:19.314Z,5.50
2022-08-17T20:22:09.862Z,7.72
2022-08-17T20:24:51.117Z,7.35
2022-08-17T20:27:31.707Z,9.23
2022-08-17T20:30:10.321Z,6.82
2022-08-17T20:32:55.561Z,6.32
2022-08-17T20:35:32.917Z,6.43
2022-08-17T20:38:02.244Z,7.00
2022-08-17T20:40:31.344Z,8.70
2022-08-17T20:42:59.464Z,6.38
2022-08-17T20:45:26.441Z,8.85
2022-08-17T20:48:30.483Z,7.13
2022-08-17T20:50:58.986Z,9.90
2022-08-17T20:53:47.739Z,6.85
2022-08-17T20:56:43.194Z,10.60
2022-08-17T20:59:31.574Z,9.27
2022-08-17T21:02:17.455Z,6.78
2022-08-17T21:04:54.865Z,6.75
2022-08-17T21:07:43.716Z,8.13
2022-08-17T21:10:13.924Z,12.48
2022-08-17T21:13:13.462Z,8.40
2022-08-17T21:15:52.334Z,10.10
2022-08-17T21:18:46.719Z,12.23
2022-08-17T21:21:31.093Z,8.85
2022-08-17T21:24:19.410Z,9.95
2022-08-17T21:27:08.314Z,9.52
2022-08-17T21:30:13.994Z,9.88
2022-08-17T21:33:20.511Z,19.00
2022-08-17T21:36:13.484Z,9.90
2022-08-17T21:39:08.782Z,8.80
2022-08-17T21:41:53.089Z,10.77
2022-08-17T21:44:27.793Z,8.50
2022-08-17T21:47:18.938Z,7.43
2022-08-17T21:49:46.312Z,8.15
2022-08-17T21:52:18.760Z,7.93
2022-08-17T21:54:56.011Z,11.85
2022-08-17T21:57:27.542Z,9.65
2022-08-17T21:59:57.742Z,12.57
2022-08-17T22:02:29.933Z,9.45
2022-08-17T22:05:08.904Z,8.82
2022-08-17T22:07:42.069Z,9.20
2022-08-17T22:10:33.080Z,6.72
2022-08-17T22:13:16.956Z,9.63
2022-08-17T22:15:48.074Z,9.02
2022-08-17T22:18:25.294Z,9.60
2022-08-17T22:20:55.658Z,8.27
2022-08-17T22:23:47.034Z,8.23
2022-08-17T22:26:16.280Z,6.13
2022-08-17T22:28:49.113Z,8.55
2022-08-17T22:31:22.102Z,10.13
2022-08-17T22:34:12.985Z,5.55
2022-08-17T22:36:42.099Z,12.93
2022-08-17T22:39:08.990Z,9.20
2022-08-17T22:41:51.001Z,7.47
2022-08-17T22:44:36.319Z,7.53
2022-08-17T22:47:30.893Z,5.82
2022-08-17T22:50:02.196Z,6.57
2022-08-17T22:52:56.405Z,8.20
2022-08-17T22:55:42.715Z,6.70
2022-08-17T22:58:31.029Z,8.38
2022-08-17T23:01:23.634Z,6.47
2022-08-17T23:04:29.450Z,7.57
2022-08-17T23:06:56.409Z,8.60
2022-08-17T23:09:23.714Z,6.93
2022-08-17T23:11:56.496Z,7.15
2022-08-17T23:14:23.373Z,7.60
2022-08-17T23:16:50.884Z,5.53
2022-08-17T23:19:21.498Z,8.55
2022-08-17T23:21:50.454Z,5.90
2022-08-17T23:24:25.147Z,9.82
2022-08-17T23:26:52.859Z,7.07
2022-08-17T23:29:21.476Z,6.32
2022-08-17T23:31:49.608Z,6.25
2022-08-17T23:34:18.672Z,8.23
2022-08-17T23:36:52.569Z,6.32
2022-08-17T23:39:27.336Z,5.53
2022-08-17T23:41:59.017Z,4.72
2022-08-17T23:44:26.769Z,8.52
2022-08-17T23:46:54.587Z,6.28
2022-08-17T23:49:21.451Z,7.45
2022-08-17T23:51:49.114Z,6.32
2022-08-17T23:54:21.564Z,5.22
2022-08-17T23:56:48.514Z,5.88
2022-08-17T23:59:17.265Z,5.68
